createdAt,value
2023-01-17T00:02:01.450Z,16.80
2023-01-17T00:04:47.759Z,16.13
2023-01-17T00:07:35.238Z,15.75
2023-01-17T00:10:08.555Z,27.73
2023-01-17T00:12:35.979Z,20.83
2023-01-17T00:15:03.685Z,18.05
2023-01-17T00:17:30.979Z,11.85
2023-01-17T00:20:19.255Z,13.73
2023-01-17T00:23:05.788Z,14.00
2023-01-17T00:25:56.565Z,13.68
2023-01-17T00:28:25.124Z,15.77
2023-01-17T00:30:52.216Z,15.48
2023-01-17T00:33:20.622Z,15.80
2023-01-17T00:35:47.903Z,13.85
2023-01-17T00:38:22.608Z,15.93
2023-01-17T00:40:49.943Z,17.92
2023-01-17T00:43:37.841Z,12.80
2023-01-17T00:46:24.534Z,12.95
2023-01-17T00:49:10.801Z,14.80
2023-01-17T00:51:56.843Z,10.85
2023-01-17T00:54:42.530Z,11.60
2023-01-17T00:57:28.170Z,13.57
2023-01-17T01:00:13.850Z,13.55
2023-01-17T01:02:59.514Z,17.88
2023-01-17T01:05:44.962Z,19.63
2023-01-17T01:08:44.865Z,9.90
2023-01-17T01:11:36.000Z,12.25
2023-01-17T01:14:22.828Z,14.68
2023-01-17T01:17:08.789Z,12.25
2023-01-17T01:19:54.179Z,17.55
2023-01-17T01:25:27.457Z,7.10
2023-01-17T01:28:21.791Z,14.75
2023-01-17T01:31:07.133Z,11.18
2023-01-17T01:33:34.005Z,15.32
2023-01-17T01:36:00.957Z,9.55
2023-01-17T01:38:27.996Z,6.72
2023-01-17T01:40:56.971Z,11.93
2023-01-17T01:43:50.251Z,13.32
2023-01-17T01:46:22.513Z,7.72
2023-01-17T01:48:57.259Z,10.60
2023-01-17T01:51:28.088Z,8.32
2023-01-17T01:54:02.968Z,13.98
2023-01-17T01:59:02.218Z,11.15
2023-01-17T02:01:31.193Z,7.97
2023-01-17T02:03:58.515Z,14.15
2023-01-17T02:06:28.568Z,10.25
2023-01-17T02:09:02.348Z,11.38
2023-01-17T02:11:29.344Z,12.35
2023-01-17T02:13:56.328Z,10.00
2023-01-17T02:16:48.089Z,9.88
2023-01-17T02:19:36.539Z,12.13
2023-01-17T02:22:40.596Z,13.00
2023-01-17T02:25:31.562Z,9.35
2023-01-17T02:28:47.954Z,8.18
2023-01-17T02:31:23.559Z,8.98
2023-01-17T02:34:12.585Z,10.13
2023-01-17T02:37:14.787Z,8.27
2023-01-17T02:39:56.577Z,10.60
2023-01-17T02:42:37.753Z,8.27
2023-01-17T02:45:05.757Z,9.90
2023-01-17T02:47:32.819Z,10.45
2023-01-17T02:50:17.464Z,7.50
2023-01-17T02:53:07.668Z,11.00
2023-01-17T02:55:47.473Z,14.48
2023-01-17T02:58:41.686Z,7.57
2023-01-17T03:01:17.511Z,12.68
2023-01-17T03:04:16.973Z,10.57
2023-01-17T03:07:09.842Z,12.32
2023-01-17T03:09:38.284Z,12.35
2023-01-17T03:12:05.881Z,8.32
2023-01-17T03:14:32.865Z,7.38
2023-01-17T03:17:00.050Z,7.13
2023-01-17T03:19:27.133Z,9.93
2023-01-17T03:21:54.216Z,11.25
2023-01-17T03:24:21.286Z,12.93
2023-01-17T03:26:48.202Z,11.82
2023-01-17T03:29:16.854Z,7.80
2023-01-17T03:31:43.886Z,8.85
2023-01-17T03:34:11.241Z,9.90
2023-01-17T03:36:38.483Z,6.90
2023-01-17T03:39:07.755Z,6.53
2023-01-17T03:41:34.483Z,7.72
2023-01-17T03:44:01.577Z,9.27
2023-01-17T03:46:31.691Z,10.20
2023-01-17T03:48:58.485Z,9.43
2023-01-17T03:51:25.679Z,11.77
2023-01-17T03:53:52.610Z,9.75
2023-01-17T03:56:20.046Z,12.27
2023-01-17T03:58:47.227Z,10.07
2023-01-17T04:01:14.648Z,9.38
2023-01-17T04:03:42.021Z,10.32
2023-01-17T04:06:09.010Z,3.83
2023-01-17T04:08:35.993Z,7.63
2023-01-17T04:11:03.120Z,12.82
2023-01-17T04:13:33.053Z,7.55
2023-01-17T04:16:00.057Z,14.73
2023-01-17T04:18:27.149Z,11.00
2023-01-17T04:20:54.237Z,10.60
2023-01-17T04:23:21.216Z,8.55
2023-01-17T04:25:48.095Z,6.60
2023-01-17T04:28:15.093Z,7.90
2023-01-17T04:30:42.150Z,6.75
2023-01-17T04:33:08.897Z,7.18
2023-01-17T04:35:36.216Z,10.13
2023-01-17T04:38:03.707Z,10.05
2023-01-17T04:40:30.503Z,6.40
2023-01-17T04:42:58.254Z,10.80
2023-01-17T04:45:25.620Z,5.97
2023-01-17T04:47:52.868Z,6.68
2023-01-17T04:50:19.780Z,10.55
2023-01-17T04:52:46.688Z,7.22
2023-01-17T04:55:13.690Z,6.38
2023-01-17T04:57:40.667Z,6.28
2023-01-17T05:00:08.466Z,7.25
2023-01-17T05:02:35.266Z,13.52
2023-01-17T05:05:02.031Z,8.15
2023-01-17T05:07:29.003Z,7.68
2023-01-17T05:09:55.762Z,9.73
2023-01-17T05:12:22.809Z,9.40
2023-01-17T05:14:49.681Z,7.85
2023-01-17T05:17:16.516Z,8.18
2023-01-17T05:19:43.531Z,8.85
2023-01-17T05:22:17.383Z,9.55
2023-01-17T05:24:45.652Z,9.50
2023-01-17T05:27:13.483Z,7.55
2023-01-17T05:29:40.859Z,8.23
2023-01-17T05:32:08.095Z,9.13
2023-01-17T05:34:35.272Z,5.20
2023-01-17T05:37:02.125Z,9.38
2023-01-17T05:39:31.163Z,12.07
2023-01-17T05:41:59.472Z,12.27
2023-01-17T05:44:27.920Z,8.60
2023-01-17T05:46:55.634Z,5.88
2023-01-17T05:49:22.698Z,7.90
2023-01-17T05:51:49.456Z,6.10
2023-01-17T05:54:16.528Z,7.43
2023-01-17T05:56:43.573Z,9.90
2023-01-17T05:59:12.614Z,5.03
2023-01-17T06:01:41.082Z,9.57
2023-01-17T06:04:07.804Z,13.10
2023-01-17T06:06:34.624Z,6.43
2023-01-17T06:09:01.682Z,11.25
2023-01-17T06:11:28.543Z,8.85
2023-01-17T06:13:55.364Z,8.07
2023-01-17T06:16:22.366Z,5.70
2023-01-17T06:18:49.284Z,8.00
2023-01-17T06:21:16.111Z,6.38
2023-01-17T06:23:43.032Z,9.32
2023-01-17T06:26:10.060Z,6.80
2023-01-17T06:28:37.037Z,10.68
2023-01-17T06:31:08.421Z,5.43
2023-01-17T06:33:35.545Z,11.52
2023-01-17T06:36:02.451Z,11.75
2023-01-17T06:38:30.045Z,9.25
2023-01-17T06:41:00.599Z,7.68
2023-01-17T06:43:29.028Z,11.98
2023-01-17T06:45:55.812Z,10.02
2023-01-17T06:48:22.636Z,7.07
2023-01-17T06:50:49.996Z,7.47
2023-01-17T06:53:16.826Z,7.63
2023-01-17T06:55:43.853Z,9.38
2023-01-17T06:58:10.814Z,10.07
2023-01-17T07:00:40.527Z,9.23
2023-01-17T07:03:18.769Z,7.55
2023-01-17T07:05:45.628Z,14.10
2023-01-17T07:08:12.644Z,8.15
2023-01-17T07:10:39.796Z,12.43
2023-01-17T07:13:06.839Z,7.10
2023-01-17T07:15:33.869Z,11.10
2023-01-17T07:18:04.575Z,9.05
2023-01-17T07:20:32.505Z,8.40
2023-01-17T07:22:59.729Z,5.47
2023-01-17T07:25:27.933Z,8.65
2023-01-17T07:27:57.782Z,9.98
2023-01-17T07:30:25.125Z,7.45
2023-01-17T07:32:55.963Z,10.05
2023-01-17T07:35:23.675Z,8.65
2023-01-17T07:37:51.457Z,6.45
2023-01-17T07:40:20.231Z,11.52
2023-01-17T07:42:47.536Z,13.13
2023-01-17T07:45:16.673Z,8.25
2023-01-17T07:47:43.922Z,7.57
2023-01-17T07:50:11.554Z,13.63
2023-01-17T07:52:38.502Z,9.95
2023-01-17T07:55:06.385Z,9.73
2023-01-17T07:57:33.340Z,14.23
2023-01-17T08:00:00.274Z,15.80
2023-01-17T08:02:27.227Z,12.68
2023-01-17T08:04:54.205Z,9.95
2023-01-17T08:07:21.464Z,7.60
2023-01-17T08:09:50.338Z,13.82
2023-01-17T08:12:17.682Z,8.77
2023-01-17T08:14:45.143Z,10.40
2023-01-17T08:17:17.112Z,10.32
2023-01-17T08:19:45.105Z,10.30
2023-01-17T08:22:12.623Z,12.95
2023-01-17T08:24:39.642Z,9.93
2023-01-17T08:27:06.828Z,11.98
2023-01-17T08:29:33.803Z,11.75
2023-01-17T08:32:00.963Z,8.95
2023-01-17T08:34:27.753Z,8.10
2023-01-17T08:36:55.252Z,9.40
2023-01-17T08:39:22.399Z,13.85
2023-01-17T08:41:49.536Z,8.30
2023-01-17T08:44:16.649Z,11.82
2023-01-17T08:46:44.343Z,11.20
2023-01-17T08:49:12.519Z,10.13
2023-01-17T08:51:40.134Z,7.43
2023-01-17T08:54:07.623Z,8.15
2023-01-17T08:56:35.293Z,12.10
2023-01-17T08:59:03.358Z,14.52
2023-01-17T09:01:30.456Z,10.32
2023-01-17T09:03:57.533Z,11.13
2023-01-17T09:06:24.539Z,7.07
2023-01-17T09:08:52.251Z,11.52
2023-01-17T09:11:19.180Z,10.15
2023-01-17T09:13:46.303Z,9.63
2023-01-17T09:16:13.081Z,12.98
2023-01-17T09:18:40.105Z,7.18
2023-01-17T09:21:17.544Z,11.10
2023-01-17T09:23:45.393Z,12.10
2023-01-17T09:26:31.206Z,9.55
2023-01-17T09:28:58.902Z,8.77
2023-01-17T09:31:27.407Z,8.93
2023-01-17T09:33:56.670Z,8.48
2023-01-17T09:36:24.269Z,11.23
2023-01-17T09:38:59.145Z,12.38
2023-01-17T09:44:15.069Z,11.55
2023-01-17T09:46:47.995Z,11.02
2023-01-17T09:49:32.005Z,9.60
2023-01-17T09:51:59.801Z,13.65
2023-01-17T09:54:37.740Z,12.32
2023-01-17T09:57:34.916Z,13.45
2023-01-17T10:00:20.200Z,11.85
2023-01-17T10:05:41.683Z,15.57
2023-01-17T10:08:34.569Z,14.70
2023-01-17T10:11:16.518Z,15.20
2023-01-17T10:14:12.755Z,14.00
2023-01-17T10:16:54.592Z,11.82
2023-01-17T10:19:44.679Z,13.02
2023-01-17T10:22:31.400Z,9.25
2023-01-17T10:25:27.867Z,12.80
2023-01-17T10:27:54.997Z,9.98
2023-01-17T10:30:27.217Z,10.15
2023-01-17T10:32:57.151Z,23.23
2023-01-17T10:35:29.640Z,17.80
2023-01-17T10:37:58.633Z,16.05
2023-01-17T10:40:44.258Z,15.57
2023-01-17T10:43:14.121Z,12.20
2023-01-17T10:45:48.969Z,12.50
2023-01-17T10:51:00.784Z,10.60
2023-01-17T10:53:30.695Z,12.00
2023-01-17T10:55:58.408Z,14.70
2023-01-17T10:58:26.068Z,16.23
2023-01-17T11:01:00.263Z,15.88
2023-01-17T11:03:28.799Z,7.60
2023-01-17T11:06:16.436Z,11.45
2023-01-17T11:09:12.112Z,15.77
2023-01-17T11:11:50.527Z,17.15
2023-01-17T11:14:27.249Z,10.98
2023-01-17T11:17:02.663Z,16.10
2023-01-17T11:19:36.470Z,13.70
2023-01-17T11:22:06.905Z,21.95
2023-01-17T11:24:47.447Z,15.00
2023-01-17T11:27:29.912Z,13.35
2023-01-17T11:30:20.554Z,31.13
2023-01-17T11:32:55.182Z,15.82
2023-01-17T11:35:30.430Z,21.00
2023-01-17T11:37:59.505Z,19.55
2023-01-17T11:40:33.655Z,14.80
2023-01-17T11:43:12.949Z,20.73
2023-01-17T11:45:41.298Z,27.23
2023-01-17T11:48:08.282Z,20.33
2023-01-17T11:50:44.734Z,15.85
2023-01-17T11:53:17.213Z,18.73
2023-01-17T11:55:56.347Z,20.20
2023-01-17T11:58:24.355Z,24.35
2023-01-17T12:00:58.131Z,15.95
2023-01-17T12:04:01.290Z,19.42
2023-01-17T12:06:57.573Z,16.48
2023-01-17T12:09:47.269Z,15.68
2023-01-17T12:12:48.177Z,15.50
2023-01-17T12:15:33.972Z,17.13
2023-01-17T12:18:19.622Z,12.90
2023-01-17T12:20:46.704Z,23.92
2023-01-17T12:23:16.660Z,15.77
2023-01-17T12:25:55.811Z,11.77
2023-01-17T12:28:58.874Z,19.20
2023-01-17T12:31:36.852Z,11.00
2023-01-17T12:34:34.084Z,10.48
2023-01-17T12:37:02.225Z,10.73
2023-01-17T12:39:37.427Z,12.13
2023-01-17T12:42:20.267Z,9.65
2023-01-17T12:44:52.347Z,12.00
2023-01-17T12:47:21.448Z,11.00
2023-01-17T12:49:48.231Z,11.38
2023-01-17T12:52:25.813Z,10.48
2023-01-17T12:55:00.000Z,15.65
2023-01-17T12:57:33.848Z,11.30
2023-01-17T13:00:09.739Z,11.75
2023-01-17T13:02:40.672Z,12.52
2023-01-17T13:05:24.928Z,13.75
2023-01-17T13:08:02.122Z,8.23
2023-01-17T13:10:44.512Z,7.75
2023-01-17T13:13:25.819Z,11.65
2023-01-17T13:15:57.554Z,7.45
2023-01-17T13:18:30.070Z,9.90
2023-01-17T13:21:21.664Z,9.68
2023-01-17T13:23:59.317Z,10.80
2023-01-17T13:26:26.099Z,6.70
2023-01-17T13:28:56.198Z,10.10
2023-01-17T13:31:32.106Z,9.23
2023-01-17T13:34:01.756Z,6.43
2023-01-17T13:36:57.917Z,6.45
2023-01-17T13:39:29.851Z,7.88
2023-01-17T13:42:30.803Z,5.68
2023-01-17T13:44:58.355Z,6.75
2023-01-17T13:47:28.110Z,7.78
2023-01-17T13:49:56.852Z,7.00
2023-01-17T13:52:23.845Z,6.70
2023-01-17T13:55:02.395Z,5.35
2023-01-17T13:57:34.840Z,5.55
2023-01-17T14:00:21.835Z,4.85
2023-01-17T14:02:55.330Z,5.75
2023-01-17T14:05:42.401Z,4.88
2023-01-17T14:08:18.446Z,5.20
2023-01-17T14:10:49.739Z,5.05
2023-01-17T14:13:33.825Z,5.28
2023-01-17T14:16:01.747Z,5.82
2023-01-17T14:18:41.910Z,6.57
2023-01-17T14:21:18.187Z,5.05
2023-01-17T14:24:00.088Z,7.18
2023-01-17T14:26:34.908Z,5.13
2023-01-17T14:29:40.159Z,5.32
2023-01-17T14:32:11.833Z,4.15
2023-01-17T14:34:39.020Z,5.95
2023-01-17T14:37:16.446Z,5.28
2023-01-17T14:39:46.341Z,5.43
2023-01-17T14:42:21.681Z,4.15
2023-01-17T14:45:08.937Z,4.45
2023-01-17T14:47:39.538Z,6.03
2023-01-17T14:50:23.454Z,6.03
2023-01-17T14:53:08.338Z,7.18
2023-01-17T14:55:35.269Z,6.72
2023-01-17T14:58:02.042Z,3.95
2023-01-17T15:00:29.570Z,5.45
2023-01-17T15:02:59.355Z,5.68
2023-01-17T15:05:29.790Z,5.45
2023-01-17T15:07:58.457Z,5.65
2023-01-17T15:10:31.698Z,7.60
2023-01-17T15:13:07.695Z,5.65
2023-01-17T15:15:42.181Z,4.30
2023-01-17T15:18:14.922Z,4.40
2023-01-17T15:20:49.200Z,4.68
2023-01-17T15:23:20.756Z,3.15
2023-01-17T15:25:49.741Z,4.70
2023-01-17T15:28:18.230Z,4.47
2023-01-17T15:31:03.748Z,4.82
2023-01-17T15:33:32.481Z,3.33
2023-01-17T15:36:06.663Z,7.32
2023-01-17T15:38:38.994Z,3.80
2023-01-17T15:41:18.086Z,3.97
2023-01-17T15:43:45.925Z,6.93
2023-01-17T15:46:31.005Z,5.85
2023-01-17T15:51:54.861Z,5.25
2023-01-17T15:54:52.965Z,5.10
2023-01-17T15:57:37.339Z,4.45
2023-01-17T16:00:21.002Z,4.25
2023-01-17T16:02:59.651Z,5.40
2023-01-17T16:05:31.201Z,5.03
2023-01-17T16:08:04.778Z,7.00
2023-01-17T16:10:36.493Z,3.72
2023-01-17T16:13:05.082Z,3.10
2023-01-17T16:15:32.679Z,6.07
2023-01-17T16:18:15.544Z,3.70
2023-01-17T16:21:15.135Z,7.28
2023-01-17T16:23:43.044Z,6.07
2023-01-17T16:26:11.120Z,7.18
2023-01-17T16:28:39.828Z,4.53
2023-01-17T16:31:07.183Z,3.13
2023-01-17T16:33:34.037Z,6.90
2023-01-17T16:36:01.036Z,8.82
2023-01-17T16:38:28.028Z,6.47
2023-01-17T16:40:54.787Z,4.40
2023-01-17T16:43:21.685Z,4.85
2023-01-17T16:45:54.095Z,7.50
2023-01-17T16:48:22.143Z,3.38
2023-01-17T16:50:52.413Z,5.75
2023-01-17T16:53:25.467Z,7.25
2023-01-17T16:55:59.870Z,3.65
2023-01-17T16:58:26.881Z,5.47
2023-01-17T17:00:55.489Z,7.57
2023-01-17T17:03:23.008Z,6.15
2023-01-17T17:05:58.511Z,3.97
2023-01-17T17:08:25.886Z,6.30
2023-01-17T17:10:52.801Z,5.10
2023-01-17T17:13:19.784Z,7.85
2023-01-17T17:15:47.001Z,3.63
2023-01-17T17:18:16.253Z,4.88
2023-01-17T17:20:44.484Z,5.00
2023-01-17T17:23:11.959Z,5.13
2023-01-17T17:25:39.116Z,3.47
2023-01-17T17:28:06.363Z,4.15
2023-01-17T17:30:34.724Z,5.43
2023-01-17T17:33:04.709Z,5.00
2023-01-17T17:35:34.992Z,4.20
2023-01-17T17:38:02.163Z,5.95
2023-01-17T17:40:29.065Z,5.50
2023-01-17T17:42:55.966Z,3.58
2023-01-17T17:45:22.876Z,4.32
2023-01-17T17:47:49.802Z,6.72
2023-01-17T17:50:16.893Z,5.85
2023-01-17T17:52:44.199Z,3.08
2023-01-17T17:55:11.610Z,4.03
2023-01-17T17:57:38.576Z,6.38
2023-01-17T18:00:06.459Z,6.50
2023-01-17T18:02:33.376Z,4.32
2023-01-17T18:05:00.459Z,4.80
2023-01-17T18:07:27.497Z,3.67
2023-01-17T18:09:54.388Z,7.13
2023-01-17T18:12:21.363Z,4.47
2023-01-17T18:14:48.324Z,3.65
2023-01-17T18:17:20.602Z,5.30
2023-01-17T18:19:47.523Z,3.83
2023-01-17T18:22:14.553Z,4.63
2023-01-17T18:24:41.468Z,7.57
2023-01-17T18:27:10.637Z,7.40
2023-01-17T18:29:37.625Z,4.60
2023-01-17T18:32:04.784Z,8.00
2023-01-17T18:34:33.967Z,4.40
2023-01-17T18:37:01.216Z,7.65
2023-01-17T18:39:29.686Z,7.57
2023-01-17T18:41:56.907Z,4.75
2023-01-17T18:44:24.158Z,4.40
2023-01-17T18:46:53.885Z,4.43
2023-01-17T18:49:21.070Z,6.30
2023-01-17T18:51:51.471Z,6.10
2023-01-17T18:54:20.457Z,5.40
2023-01-17T18:56:47.817Z,7.03
2023-01-17T18:59:16.107Z,7.88
2023-01-17T19:01:43.940Z,6.70
2023-01-17T19:04:12.895Z,6.72
2023-01-17T19:06:42.561Z,8.20
2023-01-17T19:09:12.033Z,6.93
2023-01-17T19:11:39.376Z,6.00
2023-01-17T19:14:07.241Z,6.25
2023-01-17T19:16:39.514Z,8.50
2023-01-17T19:19:13.182Z,7.75
2023-01-17T19:21:40.237Z,7.32
2023-01-17T19:24:07.643Z,5.55
2023-01-17T19:26:34.665Z,13.18
2023-01-17T19:29:06.992Z,10.43
2023-01-17T19:31:43.177Z,10.98
2023-01-17T19:34:11.397Z,10.50
2023-01-17T19:36:38.971Z,7.15
2023-01-17T19:39:09.655Z,8.48
2023-01-17T19:41:41.388Z,11.57
2023-01-17T19:44:09.871Z,13.50
2023-01-17T19:46:37.809Z,10.15
2023-01-17T19:49:07.700Z,9.15
2023-01-17T19:51:35.219Z,13.85
2023-01-17T19:54:04.304Z,10.23
2023-01-17T19:56:31.283Z,7.07
2023-01-17T19:59:01.673Z,8.25
2023-01-17T20:01:31.281Z,11.77
2023-01-17T20:04:03.566Z,8.43
2023-01-17T20:06:34.017Z,12.32
2023-01-17T20:09:01.610Z,13.68
2023-01-17T20:11:29.190Z,12.63
2023-01-17T20:13:58.672Z,14.73
2023-01-17T20:16:27.770Z,12.98
2023-01-17T20:18:54.813Z,13.43
2023-01-17T20:21:24.503Z,15.15
2023-01-17T20:23:52.277Z,13.98
2023-01-17T20:26:22.417Z,18.40
2023-01-17T20:28:51.606Z,13.88
2023-01-17T20:31:22.893Z,20.67
2023-01-17T20:33:52.790Z,20.17
2023-01-17T20:36:21.936Z,24.60
2023-01-17T20:38:49.169Z,26.50
2023-01-17T20:41:35.690Z,21.98
2023-01-17T20:44:05.114Z,24.65
2023-01-17T20:46:35.768Z,23.63
2023-01-17T20:49:05.545Z,29.27
2023-01-17T20:51:39.420Z,28.48
2023-01-17T20:54:08.845Z,27.40
2023-01-17T20:56:37.847Z,37.85
2023-01-17T20:59:08.893Z,30.67
2023-01-17T21:01:36.931Z,29.15
2023-01-17T21:04:05.107Z,38.28
2023-01-17T21:06:31.985Z,34.17
2023-01-17T21:09:00.016Z,31.75
2023-01-17T21:11:27.996Z,36.20
2023-01-17T21:13:55.256Z,39.20
2023-01-17T21:16:23.184Z,34.08
2023-01-17T21:18:52.083Z,34.53
2023-01-17T21:21:22.276Z,41.40
2023-01-17T21:23:51.230Z,42.70
2023-01-17T21:26:19.855Z,37.95
2023-01-17T21:28:48.754Z,36.38
2023-01-17T21:31:24.644Z,43.47
2023-01-17T21:33:59.414Z,37.58
2023-01-17T21:39:06.965Z,45.10
2023-01-17T21:41:39.540Z,39.50
2023-01-17T21:44:12.278Z,40.58
2023-01-17T21:46:40.452Z,40.03
2023-01-17T21:49:10.831Z,37.92
2023-01-17T21:51:54.876Z,40.47
2023-01-17T21:54:43.693Z,39.78
2023-01-17T21:57:35.208Z,35.85
2023-01-17T22:00:03.618Z,41.65
2023-01-17T22:02:30.401Z,44.58
2023-01-17T22:04:57.403Z,45.30
2023-01-17T22:07:27.206Z,45.90
2023-01-17T22:09:54.771Z,45.92
2023-01-17T22:12:21.579Z,47.53
2023-01-17T22:14:48.534Z,41.20
2023-01-17T22:17:15.424Z,46.67
2023-01-17T22:19:42.314Z,47.95
2023-01-17T22:22:09.256Z,46.90
2023-01-17T22:24:36.084Z,46.95
2023-01-17T22:27:03.078Z,39.53
2023-01-17T22:29:30.131Z,45.28
2023-01-17T22:31:56.975Z,45.35
2023-01-17T22:34:23.866Z,43.75
2023-01-17T22:36:50.708Z,43.83
2023-01-17T22:39:17.680Z,39.92
2023-01-17T22:41:44.629Z,43.88
2023-01-17T22:44:11.778Z,45.03
2023-01-17T22:46:39.479Z,48.85
2023-01-17T22:49:08.472Z,47.47
2023-01-17T22:51:35.775Z,44.10
2023-01-17T22:54:05.085Z,42.72
2023-01-17T22:56:33.478Z,47.55
2023-01-17T22:59:01.651Z,46.80
2023-01-17T23:01:30.975Z,41.65
2023-01-17T23:04:00.982Z,51.38
2023-01-17T23:06:36.599Z,41.88
2023-01-17T23:09:10.696Z,45.63
2023-01-17T23:11:43.630Z,39.33
2023-01-17T23:14:51.938Z,43.65
2023-01-17T23:17:39.168Z,35.15
2023-01-17T23:20:08.540Z,32.05
2023-01-17T23:22:35.897Z,26.80
2023-01-17T23:25:14.280Z,25.48
2023-01-17T23:28:04.598Z,21.20
2023-01-17T23:30:37.393Z,22.08
2023-01-17T23:33:14.977Z,21.77
2023-01-17T23:35:44.909Z,19.92
2023-01-17T23:38:34.108Z,26.38
2023-01-17T23:41:26.046Z,20.98
2023-01-17T23:43:54.535Z,27.38
2023-01-17T23:46:22.675Z,26.52
2023-01-17T23:48:49.659Z,30.73
2023-01-17T23:51:16.728Z,32.42
2023-01-17T23:53:43.891Z,27.58
2023-01-17T23:56:14.785Z,28.63
2023-01-17T23:58:41.928Z,25.67
